Time;durP1;ratioP1;P1;durP2;ratioP2;P2;SDS_P1;SDS_P2;PMS_P1;PMS_P2;Temp;Humidity;BMP_temperature;BMP_pressure;BME280_temperature;BME280_humidity;BME280_pressure;Samples;Min_cycle;Max_cycle;Signal;HPM_P1;HPM_P2
2021/12/19 00:00:13;;;;;;;13.43;12.53;;;;;;;-0.92;78.68;93298.19;5088524;28;20193;-74
2021/12/19 00:11:04;;;;;;;13.57;12.67;;;;;;;-0.95;77.93;93285.75;5091533;28;20984;-74
2021/12/19 00:13:29;;;;;;;12.53;11.67;;;;;;;-0.83;77.20;93302.16;5093117;28;20181;-74
2021/12/19 00:15:56;;;;;;;13.13;12.13;;;;;;;-0.83;77.41;93300.38;5091977;28;20228;-74
2021/12/19 00:18:22;;;;;;;12.03;11.33;;;;;;;-1.04;77.18;93271.53;5093510;28;20204;-74
2021/12/19 00:20:48;;;;;;;12.40;11.50;;;;;;;-0.97;78.50;93292.84;5089944;28;20213;-74
2021/12/19 00:23:14;;;;;;;13.20;12.20;;;;;;;-0.96;77.91;93289.28;5093283;28;20199;-74
2021/12/19 00:25:40;;;;;;;14.33;13.37;;;;;;;-1.00;76.62;93285.53;5091247;28;20244;-74
2021/12/19 00:28:05;;;;;;;14.53;13.50;;;;;;;-1.02;77.79;93290.06;5106150;28;20199;-74
2021/12/19 00:30:31;;;;;;;13.63;12.53;;;;;;;-0.98;77.80;93288.72;5092379;28;20250;-75
2021/12/19 00:32:56;;;;;;;14.33;13.27;;;;;;;-1.32;78.18;93252.94;5093128;28;20193;-74
2021/12/19 00:35:22;;;;;;;12.87;11.97;;;;;;;-1.05;80.86;93283.56;5091629;28;20232;-74
2021/12/19 00:37:48;;;;;;;13.80;12.80;;;;;;;-1.08;79.52;93285.69;5092729;28;20834;-75
2021/12/19 00:40:14;;;;;;;14.40;13.10;;;;;;;-1.22;79.65;93278.94;5091407;28;20189;-74
2021/12/19 00:42:40;;;;;;;13.00;12.20;;;;;;;-1.48;79.48;93263.47;5092706;28;20211;-75
2021/12/19 00:45:16;;;;;;;14.87;13.87;;;;;;;-1.55;79.96;93260.09;5092565;28;20208;-75
2021/12/19 00:47:43;;;;;;;15.60;14.43;;;;;;;-1.49;80.83;93278.03;5091295;28;20189;-74
2021/12/19 00:50:10;;;;;;;13.70;12.63;;;;;;;-1.42;80.64;93280.63;5090505;28;20234;-76
2021/12/19 00:52:35;;;;;;;15.07;13.97;;;;;;;-1.65;80.37;93257.91;5093072;28;20185;-75
2021/12/19 00:55:01;;;;;;;14.53;13.43;;;;;;;-1.63;80.50;93264.41;5092160;28;20280;-75
2021/12/19 00:57:26;;;;;;;13.83;12.77;;;;;;;-2.03;81.29;93203.75;5092482;28;20248;-74
2021/12/19 00:59:52;;;;;;;14.13;12.87;;;;;;;-1.60;81.36;93255.53;5090586;28;20268;-75
2021/12/19 01:02:17;;;;;;;14.93;13.80;;;;;;;-1.53;81.43;93260.69;5091890;28;20205;-74
2021/12/19 01:04:43;;;;;;;13.77;12.63;;;;;;;-1.60;81.28;93245.28;5091747;28;20193;-74
2021/12/19 01:07:08;;;;;;;14.37;13.47;;;;;;;-1.60;81.32;93245.28;5090749;28;20291;-74
2021/12/19 01:09:34;;;;;;;14.30;13.40;;;;;;;-1.51;80.90;93236.50;5092229;28;20189;-74
2021/12/19 01:12:01;;;;;;;14.30;13.07;;;;;;;-1.57;81.02;93236.47;5091573;28;20224;-74
2021/12/19 01:14:26;;;;;;;13.77;12.77;;;;;;;-1.66;80.66;93246.88;5091110;28;20193;-75
2021/12/19 01:16:52;;;;;;;13.97;12.87;;;;;;;-1.63;81.75;93247.47;5091266;28;20224;-75
2021/12/19 01:19:17;;;;;;;13.87;12.77;;;;;;;-1.92;81.34;93205.78;5090471;28;20211;-75
2021/12/19 01:21:44;;;;;;;14.77;13.47;;;;;;;-1.84;81.87;93223.53;5090049;28;20232;-74
2021/12/19 01:24:09;;;;;;;14.30;13.30;;;;;;;-1.86;82.44;93215.28;5090931;28;20189;-75
2021/12/19 01:26:35;;;;;;;14.23;13.13;;;;;;;-1.93;82.58;93223.88;5090401;28;20263;-75
2021/12/19 01:29:00;;;;;;;14.20;13.13;;;;;;;-1.77;82.41;93242.28;5090429;28;20189;-74
2021/12/19 01:31:26;;;;;;;15.40;14.13;;;;;;;-1.93;83.08;93229.78;5090131;28;20224;-75
2021/12/19 01:33:51;;;;;;;13.90;12.93;;;;;;;-1.95;83.60;93226.63;5090478;28;20189;-74
2021/12/19 01:36:18;;;;;;;13.13;12.13;;;;;;;-1.87;83.47;93221.34;5090477;28;20221;-75
2021/12/19 01:38:44;;;;;;;13.97;12.97;;;;;;;-2.01;83.72;93201.03;5091272;28;20185;-75
2021/12/19 01:41:09;;;;;;;14.23;13.03;;;;;;;-2.00;83.04;93200.81;5088047;28;20255;-75
2021/12/19 01:43:35;;;;;;;15.40;14.07;;;;;;;-1.82;84.50;93211.34;5091053;28;20195;-74
2021/12/19 01:46:00;;;;;;;15.23;14.13;;;;;;;-1.87;83.55;93220.56;5087647;28;20236;-74
2021/12/19 01:48:26;;;;;;;14.80;13.57;;;;;;;-1.81;83.18;93223.19;5090844;28;20201;-74
2021/12/19 01:50:52;;;;;;;14.87;13.57;;;;;;;-1.75;83.23;93217.28;5089137;28;20270;-74
2021/12/19 01:53:18;;;;;;;14.87;13.73;;;;;;;-1.78;83.33;93216.88;5091212;28;20184;-73
2021/12/19 01:55:45;;;;;;;14.47;13.27;;;;;;;-1.99;83.01;93204.16;5089821;28;20229;-74
2021/12/19 01:58:12;;;;;;;14.77;13.67;;;;;;;-1.93;83.41;93223.88;5090774;28;20208;-74
2021/12/19 02:00:43;;;;;;;16.50;15.10;;;;;;;-1.86;83.58;93205.03;5089273;28;20228;-74
2021/12/19 02:03:10;;;;;;;17.60;16.20;;;;;;;-1.91;84.20;93204.81;5090191;28;20200;-74
2021/12/19 02:05:36;;;;;;;14.37;13.37;;;;;;;-2.00;83.45;93193.16;5088396;28;20312;-74
2021/12/19 02:08:03;;;;;;;15.13;13.93;;;;;;;-2.18;83.43;93172.38;5090838;28;20189;-74
2021/12/19 02:10:31;;;;;;;13.50;12.60;;;;;;;-1.95;84.04;93203.63;5088343;28;20247;-74
2021/12/19 02:12:58;;;;;;;15.27;14.13;;;;;;;-2.03;83.48;93190.97;5090186;28;20260;-74
2021/12/19 02:15:26;;;;;;;15.23;14.03;;;;;;;-2.09;83.99;93173.84;5047036;28;1205965;-73
2021/12/19 02:17:55;;;;;;;14.37;13.37;;;;;;;-2.03;83.97;93188.41;5089932;28;20200;-75
2021/12/19 02:20:22;;;;;;;15.20;14.13;;;;;;;-1.95;83.75;93184.91;5089886;28;20224;-75
2021/12/19 02:22:47;;;;;;;16.13;14.73;;;;;;;-1.97;83.73;93191.97;5089556;28;20185;-75
2021/12/19 02:25:16;;;;;;;16.53;15.30;;;;;;;-2.06;84.34;93164.97;5087273;28;20252;-75
2021/12/19 02:27:42;;;;;;;14.57;13.40;;;;;;;-2.00;83.93;93172.69;5091230;28;20213;-76
2021/12/19 02:30:10;;;;;;;17.23;15.83;;;;;;;-1.97;83.90;93172.31;5089312;28;20232;-76
2021/12/19 02:32:37;;;;;;;17.23;15.90;;;;;;;-1.94;84.06;93187.28;5089525;28;20233;-76
2021/12/19 02:35:07;;;;;;;15.47;14.37;;;;;;;-1.94;83.97;93171.13;5089548;28;20222;-76
2021/12/19 02:48:26;;;;;;;16.53;15.23;;;;;;;-1.59;84.08;93192.34;5029383;28;20209;-76
2021/12/19 02:50:54;;;;;;;16.57;15.17;;;;;;;-1.66;83.22;93188.00;5090141;28;20254;-76
2021/12/19 02:53:33;;;;;;;14.17;13.27;;;;;;;-1.67;83.28;93173.59;5089106;28;20185;-76
2021/12/19 02:56:01;;;;;;;14.90;13.70;;;;;;;-1.63;83.04;93179.13;5088475;28;20224;-75
2021/12/19 02:58:28;;;;;;;14.30;13.10;;;;;;;-1.71;82.07;93156.25;5088573;28;20248;-75
2021/12/19 03:00:53;;;;;;;14.93;13.63;;;;;;;-1.56;83.51;93179.97;5089539;28;20229;-76
2021/12/19 03:03:19;;;;;;;13.87;12.90;;;;;;;-1.74;80.99;93165.13;5089282;28;20204;-76
2021/12/19 03:05:44;;;;;;;13.40;12.60;;;;;;;-1.83;80.78;93150.94;5090212;28;20220;-76
2021/12/19 03:08:11;;;;;;;14.73;13.73;;;;;;;-1.73;80.76;93169.25;5088033;28;20196;-75
2021/12/19 03:18:40;;;;;;;13.50;12.60;;;;;;;-1.78;78.86;93156.25;5089294;28;20195;-76
2021/12/19 03:21:10;;;;;;;13.07;12.17;;;;;;;-1.60;78.17;93170.31;5090150;28;20220;-76
2021/12/19 03:23:36;;;;;;;13.57;12.57;;;;;;;-1.70;78.94;93153.50;5088682;28;20192;-75
2021/12/19 03:26:02;;;;;;;13.33;12.43;;;;;;;-1.63;77.39;93170.69;5089674;28;20277;-76
2021/12/19 03:28:27;;;;;;;17.50;16.27;;;;;;;-1.62;77.96;93173.06;5089019;28;20196;-75
2021/12/19 03:30:53;;;;;;;12.80;11.90;;;;;;;-1.63;77.32;93178.38;5087866;28;20228;-75
2021/12/19 03:33:20;;;;;;;13.93;12.97;;;;;;;-1.72;77.82;93144.47;5089222;28;20181;-76
2021/12/19 03:35:45;;;;;;;14.90;13.80;;;;;;;-1.61;77.82;93164.38;5088611;28;20220;-75
2021/12/19 03:38:13;;;;;;;14.53;13.27;;;;;;;-1.57;79.21;93172.47;5089470;28;20177;-76
2021/12/19 03:40:43;;;;;;;13.93;13.07;;;;;;;-1.50;80.75;93152.81;5089149;28;20249;-76
2021/12/19 03:43:14;;;;;;;14.17;13.10;;;;;;;-1.78;78.85;93140.91;5089081;28;20213;-76
2021/12/19 03:45:41;;;;;;;14.27;13.37;;;;;;;-1.68;78.51;93169.47;5088169;28;20220;-75
2021/12/19 03:48:11;;;;;;;13.13;12.43;;;;;;;-1.66;78.11;93170.09;5089433;28;20193;-76
2021/12/19 03:50:37;;;;;;;13.30;12.50;;;;;;;-1.59;77.25;93174.44;5086583;28;20228;-76
2021/12/19 03:53:02;;;;;;;13.07;12.17;;;;;;;-1.74;77.32;93143.84;5088944;28;20188;-75
2021/12/19 03:55:28;;;;;;;13.80;12.90;;;;;;;-1.63;78.63;93156.09;5087324;28;20228;-76
2021/12/19 03:57:57;;;;;;;13.47;12.67;;;;;;;-1.48;78.36;93148.28;5088870;28;20193;-76
2021/12/19 04:00:26;;;;;;;12.57;11.80;;;;;;;-1.57;77.14;93142.53;5089759;28;20229;-75
2021/12/19 04:02:54;;;;;;;13.60;12.80;;;;;;;-1.64;76.78;93134.06;5088295;28;20228;-76
2021/12/19 04:05:19;;;;;;;13.17;12.27;;;;;;;-1.78;77.73;93130.69;5087266;28;20255;-76
2021/12/19 04:07:45;;;;;;;13.17;12.27;;;;;;;-1.77;78.08;93129.69;5089440;28;20185;-76
2021/12/19 04:10:10;;;;;;;13.63;12.57;;;;;;;-1.60;77.86;93139.59;5088100;28;20243;-76
2021/12/19 04:12:36;;;;;;;15.80;14.70;;;;;;;-1.76;77.22;93130.50;5087762;28;20188;-75
2021/12/19 04:15:04;;;;;;;13.47;12.67;;;;;;;-1.80;77.90;93132.63;5087870;28;20228;-76
2021/12/19 04:17:30;;;;;;;14.00;12.97;;;;;;;-1.98;77.87;93129.03;5088711;28;20203;-76
2021/12/19 04:19:55;;;;;;;12.87;12.17;;;;;;;-1.84;77.68;93131.41;5087712;28;20185;-76
2021/12/19 04:22:21;;;;;;;13.43;12.47;;;;;;;-1.77;77.33;93106.66;5087692;28;20193;-75
2021/12/19 04:24:46;;;;;;;13.10;12.20;;;;;;;-1.80;76.71;93111.38;5089834;28;20222;-75
2021/12/19 04:27:11;;;;;;;13.27;12.40;;;;;;;-1.91;76.12;93083.78;5087592;28;20228;-76
2021/12/19 04:29:37;;;;;;;14.00;12.80;;;;;;;-1.81;77.25;93104.69;5088515;28;20192;-75
2021/12/19 04:32:03;;;;;;;14.63;13.67;;;;;;;-1.88;77.94;93109.78;5088806;28;20232;-76
2021/12/19 04:34:28;;;;;;;13.70;12.67;;;;;;;-1.72;80.32;93114.56;5088109;28;20223;-76
2021/12/19 04:37:01;;;;;;;13.73;12.83;;;;;;;-1.51;80.32;93105.16;5088812;28;20280;-76
2021/12/19 04:39:37;;;;;;;14.37;13.47;;;;;;;-1.65;77.79;93104.34;5088078;28;20181;-76
2021/12/19 04:58:02;;;;;;;15.27;14.07;;;;;;;-1.51;78.60;93090.59;5091953;28;20201;-77
2021/12/19 05:00:45;;;;;;;14.40;13.17;;;;;;;-1.32;78.67;93101.84;5092513;28;20228;-77
2021/12/19 05:14:16;;;;;;;15.50;14.40;;;;;;;-1.51;78.70;93059.09;5092145;28;20215;-77
2021/12/19 05:16:44;;;;;;;16.03;14.77;;;;;;;-1.45;78.56;93087.25;5091217;28;20236;-76
2021/12/19 05:19:43;;;;;;;19.20;17.60;;;;;;;-1.39;78.80;93093.34;5090947;28;20193;-76
2021/12/19 05:22:00;;;;;;;15.80;14.27;;;;;;;-1.23;79.23;93114.25;5091446;28;20258;-77
2021/12/19 05:25:00;;;;;;;16.77;15.13;;;;;;;-1.04;79.84;93107.59;5091828;28;20185;-77
2021/12/19 05:27:25;;;;;;;14.77;13.60;;;;;;;-1.22;79.62;93053.56;5090947;28;20240;-77
2021/12/19 05:29:51;;;;;;;16.17;14.83;;;;;;;-1.04;79.22;93107.59;5091855;28;20193;-77
2021/12/19 05:32:16;;;;;;;15.50;14.20;;;;;;;-1.06;78.75;93099.31;5089943;28;20311;-77
2021/12/19 05:34:42;;;;;;;17.27;15.87;;;;;;;-1.13;78.56;93099.28;5092473;28;20226;-77
2021/12/19 05:45:20;;;;;;;15.70;14.30;;;;;;;-1.37;78.25;93076.03;5071429;28;20243;-76
2021/12/19 05:47:50;;;;;;;17.00;15.57;;;;;;;-1.24;78.48;93109.31;5071762;28;20201;-76
2021/12/19 05:50:19;;;;;;;17.03;15.53;;;;;;;-1.22;78.19;93099.69;5073343;28;20236;-76
2021/12/19 05:52:47;;;;;;;15.87;14.70;;;;;;;-1.27;77.99;93102.03;5090075;28;20189;-74
2021/12/19 05:55:14;;;;;;;15.90;14.63;;;;;;;-1.19;78.90;93105.19;5090180;28;20191;-76
2021/12/19 05:57:39;;;;;;;16.07;14.67;;;;;;;-1.04;78.23;93103.22;5090952;28;20192;-75
2021/12/19 06:00:09;;;;;;;17.33;15.70;;;;;;;-1.16;77.54;93098.88;5091230;28;20200;-75
2021/12/19 06:02:36;;;;;;;15.77;14.07;;;;;;;-1.00;79.06;93095.94;5088629;28;20275;-76
2021/12/19 06:05:03;;;;;;;17.03;15.33;;;;;;;-0.78;79.68;93105.78;5089013;28;20195;-75
2021/12/19 06:07:28;;;;;;;15.90;14.60;;;;;;;-0.83;78.67;93074.88;5087354;28;20188;-75
2021/12/19 06:09:54;;;;;;;16.03;14.73;;;;;;;-0.80;77.63;93078.78;5089897;28;20197;-75
2021/12/19 06:12:19;;;;;;;15.37;14.27;;;;;;;-1.03;77.26;93074.09;5069179;28;20288;-74
2021/12/19 06:14:45;;;;;;;16.43;15.10;;;;;;;-1.15;77.21;93044.13;5066793;28;20209;-75
2021/12/19 06:17:10;;;;;;;15.93;14.63;;;;;;;-1.19;77.02;93063.44;5087951;28;20220;-75
2021/12/19 06:19:36;;;;;;;17.17;15.67;;;;;;;-1.14;78.95;93055.94;5088286;28;20278;-75
2021/12/19 06:22:05;;;;;;;16.97;15.47;;;;;;;-0.99;77.77;93064.22;5087073;28;20212;-75
2021/12/19 06:24:32;;;;;;;16.07;14.47;;;;;;;-1.12;77.50;93059.09;5085921;28;20175;-76
2021/12/19 06:26:58;;;;;;;16.87;15.37;;;;;;;-1.04;77.52;93061.47;5086528;28;20231;-75
2021/12/19 06:29:26;;;;;;;17.00;15.53;;;;;;;-1.26;77.19;93052.41;5087653;28;20188;-75
2021/12/19 06:31:51;;;;;;;16.67;15.13;;;;;;;-1.24;77.23;93035.84;5088162;28;20236;-75
2021/12/19 06:34:17;;;;;;;17.37;16.07;;;;;;;-1.11;76.54;93050.44;5087200;28;20189;-76
2021/12/19 06:36:43;;;;;;;17.43;16.03;;;;;;;-1.10;76.44;93052.00;5085067;28;21112;-76
2021/12/19 06:39:08;;;;;;;18.70;17.00;;;;;;;-1.19;76.07;93043.75;5086167;28;21027;-75
2021/12/19 06:41:36;;;;;;;18.07;16.33;;;;;;;-1.21;75.96;93050.81;5087594;28;20243;-75
2021/12/19 06:44:02;;;;;;;20.07;17.97;;;;;;;-1.18;76.72;93052.97;5087935;28;20188;-75
2021/12/19 06:46:28;;;;;;;18.10;16.40;;;;;;;-1.25;76.13;93041.16;5088541;28;20228;-76
2021/12/19 06:48:53;;;;;;;18.07;16.47;;;;;;;-1.40;76.07;93015.75;5088219;28;20192;-76
2021/12/19 06:51:19;;;;;;;18.43;16.73;;;;;;;-1.18;76.34;93024.03;5087636;28;20232;-75
2021/12/19 06:53:44;;;;;;;19.20;17.30;;;;;;;-1.10;75.39;93011.00;5088442;28;20189;-75
2021/12/19 06:56:10;;;;;;;17.33;15.80;;;;;;;-1.05;75.80;93031.72;5088881;28;20217;-75
2021/12/19 06:58:35;;;;;;;17.83;16.20;;;;;;;-1.09;75.72;93038.22;5090292;28;20189;-73
2021/12/19 07:01:01;;;;;;;16.63;15.10;;;;;;;-1.07;75.79;93031.91;5079020;28;20236;-77
2021/12/19 07:03:26;;;;;;;16.67;15.07;;;;;;;-1.01;74.85;93028.53;5067328;28;20185;-73
2021/12/19 07:05:52;;;;;;;17.53;15.87;;;;;;;-0.89;74.84;93031.31;5076250;28;20247;-75
2021/12/19 07:08:18;;;;;;;16.13;14.60;;;;;;;-0.83;75.17;93033.06;5089209;28;20195;-76
2021/12/19 07:10:43;;;;;;;16.80;15.43;;;;;;;-0.88;74.98;93031.09;5084497;28;20227;-78
2021/12/19 07:13:09;;;;;;;17.57;15.67;;;;;;;-0.81;74.79;93031.09;5087690;28;20197;-77
2021/12/19 07:15:34;;;;;;;15.73;14.33;;;;;;;-0.76;74.71;93021.81;5087383;28;20224;-78
2021/12/19 07:18:03;;;;;;;17.90;16.13;;;;;;;-1.10;74.32;92967.47;5118606;28;20193;-78
2021/12/19 07:20:30;;;;;;;18.60;16.80;;;;;;;-0.62;73.98;93025.13;5087187;28;20216;-79
2021/12/19 07:22:56;;;;;;;17.77;15.90;;;;;;;-0.55;73.45;93020.78;5088107;28;20184;-76
2021/12/19 07:25:21;;;;;;;18.90;15.93;;;;;;;0.23;78.04;93025.59;5087571;28;20212;-77
2021/12/19 07:27:47;;;;;;;17.60;15.97;;;;;;;-0.22;72.31;93021.47;5087229;28;20196;-74
2021/12/19 07:30:13;;;;;;;17.83;15.77;;;;;;;-0.39;73.80;92989.56;5087023;28;20211;-77
2021/12/19 07:32:39;;;;;;;17.23;15.47;;;;;;;-0.39;71.95;92999.84;5088482;28;20185;-80
2021/12/19 07:35:07;;;;;;;16.77;15.17;;;;;;;-0.24;72.17;93018.31;5086841;28;20184;-76
2021/12/19 07:37:35;;;;;;;22.03;16.17;;;;;;;-0.26;71.34;93025.41;5087390;28;20209;-79
2021/12/19 07:40:13;;;;;;;20.07;16.37;;;;;;;-0.26;72.18;93027.97;5085073;28;20228;-79
2021/12/19 07:42:38;;;;;;;19.00;15.97;;;;;;;-0.18;71.95;93020.06;5085021;28;20201;-80
2021/12/19 07:45:05;;;;;;;19.13;17.07;;;;;;;0.01;71.99;93016.63;5082037;28;20200;-83
2021/12/19 07:47:30;;;;;;;18.10;16.20;;;;;;;0.15;71.39;93013.00;5087155;28;20211;-78
2021/12/19 07:49:56;;;;;;;18.03;16.10;;;;;;;0.19;69.42;93026.97;5085386;28;20264;-79
2021/12/19 07:52:21;;;;;;;17.03;15.33;;;;;;;0.41;69.08;93022.31;5086155;28;20199;-82
2021/12/19 07:54:46;;;;;;;15.33;14.03;;;;;;;0.53;68.82;93012.97;5084908;28;20224;-80
2021/12/19 07:57:12;;;;;;;15.67;14.47;;;;;;;0.57;67.90;93027.75;5085456;28;20228;-80
2021/12/19 07:59:37;;;;;;;16.23;14.93;;;;;;;0.17;68.22;92982.78;5086430;28;20216;-79
2021/12/19 08:02:04;;;;;;;15.07;13.77;;;;;;;0.37;69.87;93001.41;5085220;28;20216;-80
2021/12/19 08:04:30;;;;;;;16.80;15.33;;;;;;;0.41;68.97;93014.59;5086788;28;20185;-78
2021/12/19 08:06:56;;;;;;;15.23;14.03;;;;;;;0.42;68.11;93003.38;5086177;28;20231;-79
2021/12/19 08:09:34;;;;;;;14.73;13.50;;;;;;;0.41;67.76;92982.03;5088118;28;20185;-80
2021/12/19 08:12:00;;;;;;;17.33;15.70;;;;;;;0.12;68.38;92944.13;5087729;28;20216;-78
2021/12/19 08:14:26;;;;;;;16.23;14.83;;;;;;;0.51;67.83;92982.38;5087930;28;20202;-82
2021/12/19 08:16:51;;;;;;;16.13;14.73;;;;;;;0.44;69.97;92950.78;5086957;28;20224;-82
2021/12/19 08:19:17;;;;;;;15.63;14.07;;;;;;;0.39;67.55;92955.00;5086716;28;20207;-82
2021/12/19 08:21:42;;;;;;;16.87;15.50;;;;;;;0.68;67.59;92967.22;5087057;28;20266;-79
2021/12/19 08:24:12;;;;;;;16.60;14.97;;;;;;;0.57;67.61;92937.84;5088764;28;20252;-73
2021/12/19 08:26:39;;;;;;;18.37;16.43;;;;;;;0.66;67.89;92944.31;5071881;28;20704;-76
2021/12/19 08:29:05;;;;;;;17.83;16.43;;;;;;;0.37;66.93;92891.00;5067457;28;20193;-77
2021/12/19 08:31:31;;;;;;;17.23;15.73;;;;;;;0.72;67.83;92953.72;5068840;28;20225;-76
2021/12/19 08:33:58;;;;;;;16.57;15.00;;;;;;;0.52;68.07;92953.09;5071813;28;20198;-80
2021/12/19 08:36:24;;;;;;;16.73;15.17;;;;;;;0.59;68.73;92948.69;5070958;28;20248;-75
2021/12/19 08:38:49;;;;;;;15.63;14.33;;;;;;;0.55;67.69;92942.41;5071259;28;20201;-78
2021/12/19 08:41:15;;;;;;;18.00;16.60;;;;;;;0.44;67.46;92950.78;5071709;28;20228;-73
2021/12/19 08:43:40;;;;;;;17.87;16.27;;;;;;;0.50;67.64;92926.06;5071941;28;20185;-73
2021/12/19 08:46:11;;;;;;;17.20;15.73;;;;;;;0.66;68.03;92946.88;5069593;28;20240;-75
2021/12/19 08:48:37;;;;;;;16.27;14.77;;;;;;;0.55;67.94;92947.53;5069588;28;20193;-75
2021/12/19 08:51:03;;;;;;;15.40;14.13;;;;;;;0.42;67.56;92947.63;5072761;28;20217;-75
2021/12/19 08:53:29;;;;;;;16.30;14.80;;;;;;;0.41;69.23;92951.22;5072995;28;20235;-76
2021/12/19 08:55:55;;;;;;;15.87;14.63;;;;;;;0.22;68.44;92939.28;5071220;28;20758;-77
2021/12/19 08:58:20;;;;;;;16.27;14.80;;;;;;;0.13;68.44;92904.63;5069539;28;20181;-75
2021/12/19 09:00:46;;;;;;;16.60;15.03;;;;;;;0.46;68.17;92924.91;5070325;28;20217;-77
2021/12/19 09:03:11;;;;;;;18.30;16.73;;;;;;;0.70;68.92;92940.31;5072905;28;20253;-77
2021/12/19 09:05:37;;;;;;;18.17;16.27;;;;;;;0.78;67.68;92937.47;5077165;28;20327;-79
2021/12/19 09:08:03;;;;;;;16.33;14.90;;;;;;;0.56;67.43;92896.97;5092366;28;20184;-77
2021/12/19 09:10:29;;;;;;;17.27;15.87;;;;;;;0.65;69.30;92905.97;5091808;28;20252;-77
2021/12/19 09:12:54;;;;;;;16.27;14.87;;;;;;;1.13;68.28;92935.97;5092726;28;20196;-80
2021/12/19 09:15:21;;;;;;;16.00;14.67;;;;;;;0.92;67.35;92897.81;5091406;28;20256;-78
2021/12/19 09:17:46;;;;;;;16.90;15.50;;;;;;;0.79;67.23;92904.84;5092133;28;20212;-81
2021/12/19 09:20:13;;;;;;;16.83;15.50;;;;;;;0.86;67.24;92911.50;5091953;28;20248;-79
2021/12/19 09:22:39;;;;;;;15.37;14.10;;;;;;;0.83;66.24;92877.72;5092153;28;20200;-75
2021/12/19 09:25:05;;;;;;;18.60;16.83;;;;;;;1.55;65.98;92919.66;5091050;28;20188;-76
2021/12/19 09:27:30;;;;;;;14.50;13.43;;;;;;;1.72;66.14;92924.19;5091638;28;20237;-77
2021/12/19 09:29:55;;;;;;;18.33;16.63;;;;;;;1.68;66.83;92934.91;5091635;28;20192;-77
2021/12/19 09:32:21;;;;;;;18.73;17.13;;;;;;;2.77;71.75;92939.72;5092754;28;20222;-76
2021/12/19 09:34:46;;;;;;;18.30;16.57;;;;;;;2.16;65.95;92932.31;5092261;28;20181;-78
2021/12/19 09:37:13;;;;;;;16.13;14.93;;;;;;;2.22;65.23;92892.00;5091484;28;20238;-82
2021/12/19 09:39:39;;;;;;;17.67;15.93;;;;;;;2.53;66.33;92917.50;5092087;28;20176;-87
2021/12/19 09:42:09;;;;;;;17.53;15.83;;;;;;;2.43;65.40;92904.38;5073215;28;20859;-82
2021/12/19 09:44:39;;;;;;;17.27;15.83;;;;;;;2.46;67.93;92898.78;5071231;28;20192;-83
2021/12/19 09:47:07;;;;;;;16.90;15.50;;;;;;;2.42;66.40;92895.06;5070149;28;20226;-86
2021/12/19 09:49:34;;;;;;;17.43;15.63;;;;;;;2.17;66.45;92886.72;5070892;28;20273;-76
2021/12/19 09:52:02;;;;;;;17.23;15.87;;;;;;;2.21;66.23;92878.34;5071294;28;20225;-82
2021/12/19 09:54:28;;;;;;;19.83;18.07;;;;;;;3.29;81.95;92866.56;5072049;28;20201;-80
2021/12/19 09:56:54;;;;;;;16.57;15.30;;;;;;;2.48;65.05;92848.59;5086950;28;20228;-88
2021/12/19 09:59:21;;;;;;;17.30;15.93;;;;;;;2.00;66.74;92855.69;5122564;28;20183;-79
2021/12/19 10:01:49;;;;;;;16.30;14.73;;;;;;;2.03;67.01;92857.03;5091218;28;20254;-75
2021/12/19 10:04:34;;;;;;;16.47;15.20;;;;;;;1.97;67.87;92852.78;5092131;28;20234;-79
2021/12/19 10:07:15;;;;;;;15.43;14.23;;;;;;;2.10;68.07;92850.00;5090061;28;20232;-76
2021/12/19 10:09:54;;;;;;;16.17;14.97;;;;;;;2.16;66.76;92846.56;5091391;28;20192;-76
2021/12/19 10:13:08;;;;;;;17.17;15.87;;;;;;;2.10;66.64;92826.84;5089671;28;20887;-73
2021/12/19 10:15:31;;;;;;;16.13;14.83;;;;;;;2.02;66.54;92785.97;5072988;28;20247;-73
2021/12/19 10:18:06;;;;;;;16.80;15.23;;;;;;;2.97;76.71;92821.56;5090242;28;20209;-73
2021/12/19 10:20:51;;;;;;;17.63;16.23;;;;;;;1.89;68.65;92817.84;5090613;28;20235;-75
2021/12/19 10:23:23;;;;;;;16.67;15.27;;;;;;;1.37;70.80;92813.44;5090072;28;20203;-73
2021/12/19 10:26:07;;;;;;;17.37;15.97;;;;;;;1.43;73.45;92805.63;5090679;28;20220;-73
2021/12/19 10:28:47;;;;;;;16.90;15.70;;;;;;;1.36;71.14;92806.72;5089912;28;20195;-73
2021/12/19 10:31:12;;;;;;;16.03;14.83;;;;;;;1.19;71.28;92788.56;5079514;28;20225;-72
2021/12/19 10:33:38;;;;;;;17.03;15.50;;;;;;;1.47;70.98;92762.25;5071780;28;20196;-75
2021/12/19 10:36:05;;;;;;;16.97;15.70;;;;;;;1.19;71.02;92749.19;5069118;28;20221;-82
2021/12/19 10:38:37;;;;;;;15.27;14.10;;;;;;;1.32;70.01;92761.88;5068239;28;20198;-78
2021/12/19 10:41:08;;;;;;;15.33;13.93;;;;;;;1.45;70.04;92789.97;5069265;28;20241;-80
2021/12/19 10:43:40;;;;;;;16.57;15.10;;;;;;;1.48;70.44;92799.81;5069954;28;20193;-76
2021/12/19 10:46:09;;;;;;;16.37;15.07;;;;;;;1.80;71.24;92790.06;5079264;28;20217;-79
2021/12/19 10:48:37;;;;;;;17.13;15.63;;;;;;;1.65;71.02;92790.47;5087527;28;20203;-89
2021/12/19 10:51:06;;;;;;;16.07;14.67;;;;;;;1.39;70.80;92790.84;5078372;28;20236;-73
2021/12/19 10:53:41;;;;;;;16.07;14.77;;;;;;;1.43;70.13;92787.63;5068831;28;20178;-78
2021/12/19 10:56:13;;;;;;;16.87;15.47;;;;;;;1.50;70.79;92777.25;5065754;28;20238;-76
2021/12/19 10:58:52;;;;;;;16.30;14.97;;;;;;;1.48;70.47;92759.47;5067933;28;20223;-76
2021/12/19 11:01:44;;;;;;;16.87;15.37;;;;;;;1.30;70.09;92749.25;5069624;28;20249;-73
2021/12/19 11:04:17;;;;;;;17.40;16.03;;;;;;;1.53;71.50;92744.16;5065083;28;20318;-77
2021/12/19 11:06:54;;;;;;;15.40;14.27;;;;;;;1.61;71.38;92743.06;5066115;28;20235;-76
2021/12/19 11:09:21;;;;;;;16.07;14.80;;;;;;;1.85;71.21;92746.44;5067556;28;20193;-77
2021/12/19 11:11:56;;;;;;;17.70;16.33;;;;;;;1.82;70.61;92734.81;5065965;28;20312;-76
2021/12/19 11:14:33;;;;;;;17.13;15.63;;;;;;;1.89;70.97;92729.53;5068963;28;20193;-75
2021/12/19 11:17:01;;;;;;;18.70;17.20;;;;;;;1.73;70.58;92712.19;5067490;28;20228;-74
2021/12/19 11:19:28;;;;;;;16.67;15.40;;;;;;;1.58;69.81;92736.56;5070009;28;20178;-75
2021/12/19 11:21:54;;;;;;;16.03;14.53;;;;;;;1.67;68.92;92746.53;5068568;28;20225;-77
2021/12/19 11:24:24;;;;;;;17.20;15.77;;;;;;;1.86;69.91;92735.13;5069314;28;20244;-77
2021/12/19 11:26:58;;;;;;;15.63;14.33;;;;;;;1.94;67.16;92719.38;5067835;28;20220;-78
2021/12/19 11:29:25;;;;;;;16.47;14.40;;;;;;;1.90;67.78;92702.81;5068255;28;20206;-77
2021/12/19 11:31:57;;;;;;;19.37;17.97;;;;;;;2.13;68.07;92710.53;5068390;28;20243;-78
2021/12/19 11:34:51;;;;;;;16.53;15.33;;;;;;;2.03;67.79;92716.25;5069912;28;20204;-79
2021/12/19 11:37:22;;;;;;;16.67;15.43;;;;;;;2.04;68.00;92717.78;5068871;28;20213;-79
2021/12/19 11:39:54;;;;;;;16.03;14.57;;;;;;;2.02;67.89;92714.69;5068092;28;20648;-77
2021/12/19 11:42:28;;;;;;;17.57;16.17;;;;;;;1.89;69.60;92696.09;5067861;28;20272;-74
2021/12/19 11:47:43;;;;;;;16.80;15.60;;;;;;;2.02;68.59;92698.44;5068040;28;20220;-75
2021/12/19 11:50:18;;;;;;;16.77;15.37;;;;;;;2.02;68.07;92699.22;5067189;28;20216;-72
2021/12/19 11:52:43;;;;;;;18.13;16.53;;;;;;;1.99;69.17;92691.16;5069370;28;20193;-75
2021/12/19 11:55:15;;;;;;;17.50;16.10;;;;;;;2.02;68.48;92680.41;5069611;28;20310;-75
2021/12/19 11:58:09;;;;;;;17.27;15.87;;;;;;;1.87;68.10;92667.22;5087929;28;20291;-75
2021/12/19 12:00:55;;;;;;;16.23;14.77;;;;;;;1.89;69.84;92678.84;5088627;28;20280;-78
2021/12/19 12:03:25;;;;;;;18.17;16.57;;;;;;;1.84;69.39;92677.97;5088164;28;20211;-76
2021/12/19 12:05:53;;;;;;;17.27;15.77;;;;;;;1.54;69.63;92660.81;5089811;28;20228;-77
2021/12/19 12:08:20;;;;;;;18.80;17.00;;;;;;;1.44;71.23;92667.53;5091549;28;20191;-77
2021/12/19 12:10:49;;;;;;;18.20;16.60;;;;;;;1.44;71.32;92676.03;5094654;28;20227;-76
2021/12/19 12:13:23;;;;;;;18.53;16.87;;;;;;;1.53;70.94;92669.56;5092061;28;20193;-75
2021/12/19 12:15:51;;;;;;;20.00;18.20;;;;;;;1.43;72.29;92664.16;5089683;28;20220;-75
2021/12/19 12:18:30;;;;;;;19.33;17.53;;;;;;;1.59;72.28;92648.09;5091515;28;20192;-76
2021/12/19 12:20:56;;;;;;;17.60;15.90;;;;;;;1.67;71.69;92655.47;5092535;28;20239;-76
2021/12/19 12:23:26;;;;;;;19.33;17.63;;;;;;;1.59;71.37;92650.66;5092796;28;20173;-78
2021/12/19 12:25:51;;;;;;;17.57;15.77;;;;;;;1.49;72.41;92653.00;5091871;28;20248;-75
2021/12/19 12:28:18;;;;;;;18.63;16.87;;;;;;;1.43;71.53;92629.97;5092628;28;20231;-72